Terminal Aerodrome Forecast
Issued by NWS Buffalo, NY

Home | Current Version | Previous Version | Text Only | Print | Product List | Glossary On
Versions: 1 2 3 4 5 6 7 8 9 10 11 12 13 14 15 16 17 18 19 20 21 22 23 24 25 26 27 28 29 30
307
FTUS41 KBUF 252320
TAFBUF
TAF
KBUF 252320Z 2600/2624 07004KT P6SM BKN040
     FM260130 09004KT P6SM SCT040
     FM260600 VRB03KT P6SM SKC
     FM261200 15004KT P6SM FEW250
     FM261600 23006KT P6SM FEW250
     FM262200 23006KT P6SM SCT100=

USA.gov is the U.S. government's official web portal to all federal, state and local government web resources and services.